Central Sierra Snow Lab Weather observations

Data are for 10 minute period ending at time listed.
 Day   Time    Incoming  Reflected   Ave.   Ave.    Ave.    Vector  Max.    Ave.    Total    Snow   
  of    of      Solar     Solar      Air    Rel.    Wind    Wind    Wind   Baro.   Precip.   Depth  
Year   Day     Radiation Radiation   Temp.  Humid.  Speed   Dir.    Gust   Press.                   
2019   (PST)    Kw/m2     Kw/m2       F       %      mph     deg.    mph     mb.     in.      in.   
----------------------------------------------------------------------------------------------------
  52    5:50    0.000     999.000     11.8     86     2.2     164     4.5   774.90   -2.96   159.40  
  52    6:00    0.000     999.000     11.0     86     2.0     169     4.6   774.90   -2.97   152.50  
  52    6:10    0.000     999.000     11.2     87     2.0     164     5.6   774.90   -2.96   145.60  
  52    6:20    0.000     999.000     11.4     87     2.4     145     6.1   775.00   -2.96   149.20  
  52    6:30    0.000     999.000     11.4     87     2.7     152     7.4   775.00   -2.96   145.80  
  52    6:40    0.000     999.000     11.9     86     3.0     136     7.3   775.00   -2.96   152.10  
  52    6:50    0.000     999.000     12.0     85     3.0     112     8.0   775.10   -2.96   155.60  
  52    7:00    0.001     999.000     12.2     84     3.0     107     7.2   775.10   -2.97   151.80  
  52    7:10    0.001     999.000     12.3     83     3.1     116     8.2   775.10   -2.96   160.60  
  52    7:20    0.001     999.000     12.5     83     3.8      90     9.5   775.20   -2.96   165.20  
  52    7:30    0.002     999.000     12.8     83     4.2     100    10.8   775.30   -2.96   165.20  
  52    7:40    0.003     999.000     13.0     82     3.0     102     9.2   775.40   -2.96   164.50  
  52    7:50    0.004     999.000     13.2     81     3.5     107    10.5   775.50   -2.96   165.40  
  52    8:00    0.003     999.000     13.1     81     3.7     117     8.9   775.50   -2.96   165.20  
  52    8:10    0.004     999.000     13.0     80     3.3     132     8.6   775.60   -2.96   165.20  
  52    8:20    0.007     999.000     13.0     82     3.0     125     9.3   775.70   -2.96   165.20  
  52    8:30    0.007     999.000     13.4     82     3.2     122     7.6   775.80   -2.96   165.40  
  52    8:40    0.010     999.000     14.0     82     3.1     128     7.3   775.90   -2.96   165.30  
  52    8:50    0.013     999.000     14.5     80     4.2     102     9.3   775.90   -2.96   165.30  
  52    9:00    0.022     999.000     15.2     78     3.6     117     8.3   775.90   -2.96   153.40  
  52    9:10    0.053     999.000     15.9     77     4.6     104    10.7   775.90   -2.96   165.30  
  52    9:20    0.072     999.000     17.0     74     3.8      78    10.2   776.00   -2.96   165.30  
  52    9:30    0.066     999.000     17.6     73     4.0     101    10.5   776.10   -2.96   165.30  
  52    9:40    0.051     999.000     18.0     74     2.2      23     4.8   776.20   -2.96   165.90  
  52    9:50    0.057     999.000     17.7     75     3.9     101    12.3   776.30   -2.96   165.90  
  52   10:00    0.064     999.000     18.4     76     2.6      91    12.7   776.30   -2.96   165.80  
  52   10:10    0.074     999.000     19.0     74     4.0     105    10.0   776.40   -2.96   165.80  
  52   10:20    0.086     999.000     18.9     73     4.9     102    12.3   776.40   -2.96   142.70  
  52   10:30    0.098     999.000     20.3     70     4.1     117    10.3   776.50   -2.96   164.50  
  52   10:40    0.058     999.000     20.1     71     4.5      91    10.2   776.60   -2.96   150.90  
  52   10:50    0.033     999.000     17.9     78     4.8      76    10.8   776.60   -2.96   165.80  
  52   11:00    0.080     999.000     19.6     76     3.4     118    10.1   776.60   -2.96   165.70  
  52   11:10    0.081     999.000     21.0     68     5.4     108    14.2   776.60   -2.96   148.70  
  52   11:20    0.080     999.000     21.0     70     3.1      68     9.0   776.60   -2.96   165.70  
  52   11:30    0.054     999.000     21.4     68     3.1      50     7.8   776.70   -2.96   165.60  
  52   11:40    0.074     999.000     19.9     70     4.2      49    12.8   776.80   -2.96   165.80  
  52   11:50    0.080     999.000     21.3     62     4.1      96    11.7   776.80   -2.96   165.70  
  52   12:00    0.078     999.000     20.8     62     3.8      64     9.6   776.80   -2.96   165.70  
  52   12:10    0.095     999.000     21.1     61     5.3      67    16.0   776.80   -2.96   165.70  
  52   12:20    0.093     999.000     21.8     59     3.8      99     9.8   776.70   -2.96   165.60  
  52   12:30    0.088     999.000     22.2     58     3.6      97    14.7   776.70   -2.96   165.70  
  52   12:40    0.088     999.000     22.3     56     4.2     112    15.6   776.80   -2.96   165.70  
  52   12:50    0.082     999.000     22.4     56     3.3     104     9.8   776.70   -2.96   165.70  
  52   13:00    0.071     999.000     21.5     60     4.2      67    13.8   776.80   -2.96   165.70  
  52   13:10    0.066     999.000     21.7     61     5.0      94    11.2   776.80   -2.96   165.50  
  52   13:20    0.082     999.000     21.4     61     4.0     103    12.0   776.90   -2.96   164.10  
  52   13:30    0.076     999.000     21.8     59     4.2      82    12.9   776.90   -2.96   156.50  
  52   13:40    0.069     999.000     22.0     58     3.9      58    10.8   776.90   -2.96   159.50  
  52   13:50    0.074     999.000     21.6     59     4.0      57    12.9   776.90   -2.96   164.30  
  52   14:00    0.081     999.000     22.3     59     4.8     100    11.7   776.90   -2.96   159.60  
  52   14:10    0.070     999.000     22.4     60     3.6      51    12.3   777.00   -2.96   151.20  
  52   14:20    0.070     999.000     21.3     58     4.1      74    11.0   777.10   -2.96   161.60  
  52   14:30    0.071     999.000     22.0     59     4.0      60    10.2   777.20   -2.96   165.60  
  52   14:40    0.072     999.000     22.3     59     4.3      99    13.4   777.30   -2.96   153.30  
  52   14:50    0.070     999.000     21.5     59     3.6      70     8.8   777.30   -2.96   143.50  
  52   15:00    0.060     999.000     22.3     58     3.5      89    10.7   777.30   -2.96   165.30  
  52   15:10    0.043     999.000     21.4     63     3.0     114     7.7   777.40   -2.96   161.70  
  52   15:20    0.028     999.000     19.4     73     3.3      77     9.0   777.60   -2.96   165.20  
  52   15:30    0.046     999.000     18.9     67     4.9      92    13.9   777.60   -2.96   165.80  
  52   15:40    0.025     999.000     20.0     65     2.8      65    10.8   777.70   -2.96   165.80  
  52   15:50    0.028     999.000     20.3     64     4.5      42    10.3   777.80   -2.96   165.80  
  52   16:00    0.038     999.000     20.3     66     5.1      71    12.4   777.90   -2.96   165.70  
  52   16:10    0.030     999.000     19.4     66     3.3     110    12.1   777.90   -2.96   165.50  
  52   16:20    0.019     999.000     19.8     65     2.9      46     8.5   777.90   -2.96   165.30  
  52   16:30    0.025     999.000     19.3     65     3.4      88    10.0   778.10   -2.96   165.30  
  52   16:40    0.037     999.000     18.9     65     3.6      30     9.6   778.40   -2.96   165.40  
  52   16:50    0.025     999.000     19.1     66     3.0      48     9.8   778.40   -2.96   165.30  
  52   17:00    0.019     999.000     18.3     68     3.2      40     8.9   778.50   -2.96   165.30  
  52   17:10    0.008     999.000     17.4     71     2.8      45     8.6   778.50   -2.96   165.30  
  52   17:20    0.006     999.000     17.1     67     3.9      26    14.3   778.60   -2.96   165.30  
  52   17:30    0.005     999.000     16.7     68     4.3      18    14.7   778.60   -2.96   165.30  
  52   17:40    0.004     999.000     16.6     68     3.0      20     9.3   778.70   -2.96   165.30  
  52   17:50    0.002     999.000     16.4     69     4.0      21    11.9   778.70   -2.96   165.30  
  52   18:00    0.000     999.000     16.3     70     3.6      39    10.1   778.90   -2.96   165.30  
  52   18:10    0.000     999.000     16.1     70     2.9      51    14.2   779.10   -2.96   165.40  
  52   18:20    0.000     999.000     15.8     71     2.0      95     6.5   779.20   -2.96   165.40  
  52   18:30    0.000     999.000     15.7     72     3.6      41     8.8   779.40   -2.96   165.40  
  52   18:40    0.000     999.000     15.7     72     2.5      26     6.7   779.50   -2.96   165.40  
  52   18:50    0.000     999.000     15.7     71     2.8      15    12.2   779.60   -2.96   165.40  
  52   19:00    0.000     999.000     15.5     72     3.2      80     9.1   779.70   -2.96   165.40  
  52   19:10    0.000     999.000     15.5     72     3.1      64    14.1   779.80   -2.96   165.40  
  52   19:20    0.000     999.000     15.5     73     4.5      68    17.2   779.90   -2.96   165.40  
  52   19:30    0.000     999.000     15.3     74     3.6      35     9.6   780.00   -2.96   165.40  
  52   19:40    0.000     999.000     15.2     73     3.3      72     9.1   780.20   -2.96   165.40  
  52   19:50    0.000     999.000     15.2     72     3.8      56    10.7   780.40   -2.96   165.40  
  52   20:00    0.000     999.000     15.0     73     2.8      82    10.8   780.50   -2.96   165.40  
  52   20:10    0.000     999.000     14.8     74     3.2      65    11.2   780.60   -2.96   165.30  
  52   20:20    0.000     999.000     14.6     75     1.7     260     5.3   780.70   -2.96   165.30  
  52   20:30    0.000     999.000     14.5     75     2.2      17     7.9   780.80   -2.96   165.40  
  52   20:40    0.000     999.000     14.6     75     2.2      56     6.8   781.00   -2.96   165.40  
  52   20:50    0.000     999.000     14.5     76     2.8     147     9.1   781.20   -2.96   165.40  
  52   21:00    0.000     999.000     14.4     75     3.5     105    14.8   781.40   -2.96   165.40  
  52   21:10    0.000     999.000     14.4     75     2.4     161     5.2   781.50   -2.96   165.50  
  52   21:20    0.000     999.000     14.3     76     2.8     160    11.4   781.70   -2.96   165.40  
  52   21:30    0.000     999.000     14.1     76     2.4     108     8.8   781.90   -2.96   165.50  
  52   21:40    0.000     999.000     14.4     74     2.9     108     9.2   781.90   -2.96   165.40  
  52   21:50    0.000     999.000     14.2     75     2.8     124     8.7   781.90   -2.96   165.40  
  52   22:00    0.000     999.000     13.8     75     3.4     112     9.9   782.00   -2.96   165.50  
  52   22:10    0.000     999.000     13.5     75     3.7     103     8.0   782.00   -2.96   165.50  
  52   22:20    0.000     999.000     13.2     76     3.2     109    12.2   782.00   -2.96   165.50  
  52   22:30    0.000     999.000     13.2     76     3.7     128    10.3   782.10   -2.96   165.40  
  52   22:40    0.000     999.000     13.1     77     3.3     139     6.9   782.20   -2.96   165.40  
  52   22:50    0.000     999.000     12.9     78     3.3     142     7.0   782.40   -2.96   165.50  
  52   23:00    0.000     999.000     12.8     78     3.5     124    10.3   782.50   -2.96   165.50  
  52   23:10    0.000     999.000     12.8     77     3.5     118     8.8   782.60   -2.96   165.50  
  52   23:20    0.000     999.000     12.7     77     3.3      95     8.3   782.70   -2.96   165.40  
  52   23:30    0.000     999.000     12.5     77     2.7     100     8.9   782.80   -2.96   165.30  
  52   23:40    0.000     999.000     12.7     76     4.3     100     8.7   782.80   -2.96   165.50  
  52   23:50    0.000     999.000     12.9     74     4.7     121    12.8   782.80   -2.96   165.50  
  53    0:00    0.000     999.000     12.6     74     4.0     122     9.4   782.90   -2.96   165.50  
  53    0:10    0.000     999.000     12.5     75     3.5      90     9.2   782.90   -2.96   165.50  
  53    0:20    0.000     999.000     12.6     75     5.1      74    12.3   782.90   -2.96   165.40  
  53    0:30    0.000     999.000     12.5     75     3.9      78    16.5   783.10   -2.96   165.40  
  53    0:40    0.000     999.000     12.4     75     4.1      40     8.3   783.10   -2.96   165.50  
  53    0:50    0.000     999.000     12.2     76     3.8      37    10.9   783.10   -2.96   165.40  
  53    1:00    0.000     999.000     11.9     77     3.0      71     7.5   783.10   -2.96   165.30  
  53    1:10    0.000     999.000     11.7     78     3.4      50    11.5   783.20   -2.96   165.40  
  53    1:20    0.000     999.000     11.6     78     3.6      51     7.8   783.10   -2.96   165.40  
  53    1:30    0.000     999.000     11.5     78     3.9      64    13.9   783.10   -2.96   165.50  
  53    1:40    0.000     999.000     11.3     79     4.2      49     8.7   783.20   -2.96   165.40  
  53    1:50    0.000     999.000     11.1     80     3.8      51    10.5   783.20   -2.96   165.50  
  53    2:00    0.000     999.000     10.9     80     3.3      49     8.6   783.20   -2.96   165.50  
  53    2:10    0.000     999.000     10.4     81     3.1      41     6.5   783.20   -2.96   165.50  
  53    2:20    0.000     999.000     10.1     82     3.0      49     8.2   783.40   -2.96   165.50  
  53    2:30    0.000     999.000      9.8     83     3.2      34     8.1   783.40   -2.96   165.30  
  53    2:40    0.000     999.000      9.6     83     3.0      33     7.4   783.40   -2.96   165.30  
  53    2:50    0.000     999.000      9.9     83     3.5      35     7.5   783.40   -2.96   165.20  
  53    3:00    0.000     999.000      9.9     82     3.1      38     8.9   783.30   -2.96   165.20  
  53    3:10    0.000     999.000     10.0     81     2.4      36     6.6   783.30   -2.96   165.30  
  53    3:20    0.000     999.000     10.1     81     2.0      35     7.5   783.30   -2.96   165.30  
  53    3:30    0.000     999.000     10.0     80     2.2      26     5.5   783.30   -2.96   165.30  
  53    3:40    0.000     999.000     10.0     80     2.4      28     6.5   783.30   -2.96   165.10  
  53    3:50    0.000     999.000      9.9     80     2.0      26     7.9   783.40   -2.96   165.20  
  53    4:00    0.000     999.000      9.6     81     2.1      37     4.8   783.50   -2.96   165.20  
  53    4:10    0.000     999.000      9.4     82     2.1      35     7.2   783.60   -2.96   165.10  
  53    4:20    0.000     999.000      9.5     82     2.2      24     5.8   783.60   -2.96   147.00  
  53    4:30    0.000     999.000      9.5     82     1.8      24     5.0   783.70   -2.96   120.90  
  53    4:40    0.000     999.000      8.9     82     0.8      23     3.8   783.80   -2.96   125.20  
  53    4:50    0.000     999.000      8.5     84     1.9      28     5.2   783.80   -2.96   126.00  
  53    5:00    0.000     999.000      8.1     84     0.9      63     3.2   783.90   -2.96   120.80  
  53    5:10    0.000     999.000      7.6     85     1.4      28     5.8   783.90   -2.96   120.80  
  53    5:20    0.000     999.000      7.6     85     1.1     122     4.8   783.90   -2.96   120.80  
  53    5:30    0.000     999.000      7.8     85     1.2      31     4.8   784.10   -2.96   120.80  
  53    5:40    0.000     999.000      7.6     85     1.0      23     4.7   784.10   -2.96   120.80  

Return to Central Sierra Snow Lab graphs page.


Western Regional Climate Center,wrcc@dri.edu